Time;durP1;ratioP1;P1;durP2;ratioP2;P2;SDS_P1;SDS_P2;PMS_P1;PMS_P2;Temp;Humidity;BMP_temperature;BMP_pressure;BME280_temperature;BME280_humidity;BME280_pressure;Samples;Min_cycle;Max_cycle;Signal;HPM_P1;HPM_P2
2023/01/18 00:01:21;;;;;;;;;;;-3.00;99.90;;;;;;5056982;28;20359;-61
2023/01/18 00:03:47;;;;;;;;;;;-3.10;99.90;;;;;;5039210;28;19913;-62
2023/01/18 00:06:12;;;;;;;;;;;-3.10;99.90;;;;;;5057166;28;20021;-60
2023/01/18 00:08:38;;;;;;;;;;;-3.20;99.90;;;;;;5056843;28;19944;-61
2023/01/18 00:11:04;;;;;;;;;;;-3.20;99.90;;;;;;5057030;28;19912;-60
2023/01/18 00:13:30;;;;;;;;;;;-3.20;99.90;;;;;;5056728;28;19909;-61
2023/01/18 00:16:04;;;;;;;;;;;-3.20;99.90;;;;;;5056519;28;19916;-61
2023/01/18 00:18:30;;;;;;;;;;;-3.30;99.90;;;;;;5039060;28;20021;-60
2023/01/18 00:20:58;;;;;;;;;;;-3.30;99.90;;;;;;5056613;28;19912;-61
2023/01/18 00:23:24;;;;;;;;;;;-3.40;99.90;;;;;;5056560;28;19913;-61
2023/01/18 00:25:49;;;;;;;;;;;-3.40;99.90;;;;;;5056483;28;19956;-61
2023/01/18 00:28:20;;;;;;;;;;;-3.40;99.90;;;;;;5056424;28;19915;-61
2023/01/18 00:30:46;;;;;;;;;;;-3.40;99.90;;;;;;5056409;28;20390;-61
2023/01/18 00:33:11;;;;;;;;;;;-3.50;99.90;;;;;;5056655;28;19909;-60
2023/01/18 00:35:37;;;;;;;;;;;-3.50;99.90;;;;;;5056585;28;19913;-61
2023/01/18 00:38:02;;;;;;;;;;;-3.50;99.90;;;;;;5056455;28;19920;-60
2023/01/18 00:40:29;;;;;;;;;;;-3.50;99.90;;;;;;5056229;28;19912;-60
2023/01/18 00:45:40;;;;;;;;;;;-3.50;99.90;;;;;;5056007;28;19916;-60
2023/01/18 00:48:06;;;;;;;;;;;-3.50;99.90;;;;;;5056359;28;20330;-61
2023/01/18 00:50:31;;;;;;;;;;;-3.50;99.90;;;;;;5037756;28;19951;-61
2023/01/18 00:52:58;;;;;;;;;;;-3.50;99.90;;;;;;5056075;28;19928;-61
2023/01/18 00:55:24;;;;;;;;;;;-3.50;99.90;;;;;;5056229;28;19916;-60
2023/01/18 00:57:50;;;;;;;;;;;-3.50;99.90;;;;;;5056140;28;19912;-60
2023/01/18 01:00:15;;;;;;;;;;;-3.50;99.90;;;;;;5055894;28;19916;-61
2023/01/18 01:02:41;;;;;;;;;;;-3.60;99.90;;;;;;5056137;28;19909;-61
2023/01/18 01:08:00;;;;;;;;;;;-3.70;99.90;;;;;;5055528;28;19909;-61
2023/01/18 01:10:26;;;;;;;;;;;-3.70;99.90;;;;;;5055981;28;19912;-60
2023/01/18 01:26:39;;;;;;;;;;;-3.80;99.90;;;;;;5055213;28;19913;-61
2023/01/18 01:29:04;;;;;;;;;;;-3.80;99.90;;;;;;5055608;28;19909;-61
2023/01/18 01:31:30;;;;;;;;;;;-3.90;99.90;;;;;;5037463;28;19909;-60
2023/01/18 01:33:55;;;;;;;;;;;-3.80;99.90;;;;;;5055500;28;20359;-61
2023/01/18 01:36:26;;;;;;;;;;;-3.80;99.90;;;;;;5055066;28;19909;-61
2023/01/18 01:38:52;;;;;;;;;;;-3.80;99.90;;;;;;5055404;28;19909;-60
2023/01/18 01:41:24;;;;;;;;;;;-3.80;99.90;;;;;;5055367;28;20377;-61
2023/01/18 01:43:50;;;;;;;;;;;-3.80;99.90;;;;;;5055289;28;19908;-61
2023/01/18 01:46:19;;;;;;;;;;;-3.80;99.90;;;;;;5055261;28;20366;-61
2023/01/18 01:48:46;;;;;;;;;;;-3.80;99.90;;;;;;5053837;28;19908;-60
2023/01/18 01:51:12;;;;;;;;;;;-3.80;99.90;;;;;;5037079;28;19948;-60
2023/01/18 01:53:37;;;;;;;;;;;-3.80;99.90;;;;;;5055107;28;20271;-60
2023/01/18 01:56:03;;;;;;;;;;;-3.90;99.90;;;;;;5054807;28;19909;-60
2023/01/18 01:58:30;;;;;;;;;;;-3.80;99.90;;;;;;5054946;28;19919;-61
2023/01/18 02:00:56;;;;;;;;;;;-3.80;99.90;;;;;;5054163;28;19909;-61
2023/01/18 02:03:22;;;;;;;;;;;-3.90;99.90;;;;;;5054683;28;20344;-61
2023/01/18 02:05:51;;;;;;;;;;;-3.90;99.90;;;;;;5054600;28;19909;-61
2023/01/18 02:08:21;;;;;;;;;;;-3.90;99.90;;;;;;5054564;28;19915;-61
2023/01/18 02:10:47;;;;;;;;;;;-3.90;99.90;;;;;;5054519;28;19940;-61
2023/01/18 02:13:12;;;;;;;;;;;-3.90;99.90;;;;;;5054472;28;19909;-60
2023/01/18 02:15:42;;;;;;;;;;;-3.90;99.90;;;;;;5054575;28;19966;-61
2023/01/18 02:18:15;;;;;;;;;;;-3.90;99.90;;;;;;5054166;28;19956;-61
2023/01/18 02:20:54;;;;;;;;;;;-3.90;99.90;;;;;;5054595;28;19917;-61
2023/01/18 02:23:40;;;;;;;;;;;-3.90;99.90;;;;;;5054540;28;19962;-61
2023/01/18 02:26:16;;;;;;;;;;;-3.90;99.90;;;;;;5054135;28;19909;-61
2023/01/18 02:28:45;;;;;;;;;;;-4.00;99.90;;;;;;5054235;28;20282;-61
2023/01/18 02:31:19;;;;;;;;;;;-4.00;99.90;;;;;;5054143;28;19919;-60
2023/01/18 02:33:55;;;;;;;;;;;-4.10;99.90;;;;;;5054129;28;20362;-61
2023/01/18 02:36:29;;;;;;;;;;;-4.10;99.90;;;;;;5054250;28;19990;-61
2023/01/18 02:38:59;;;;;;;;;;;-4.10;99.90;;;;;;5054025;28;19916;-60
2023/01/18 02:46:29;;;;;;;;;;;-4.10;99.90;;;;;;5054245;28;19943;-60
2023/01/18 02:47:05;;;;;;;;;;;-4.20;99.90;;;;;;5053751;28;19909;-61
2023/01/18 02:49:31;;;;;;;;;;;-4.20;99.90;;;;;;5053866;28;20398;-61
2023/01/18 02:52:00;;;;;;;;;;;-4.20;99.90;;;;;;5054134;28;19909;-61
2023/01/18 02:54:26;;;;;;;;;;;-4.10;99.90;;;;;;5054071;28;20305;-61
2023/01/18 02:56:52;;;;;;;;;;;-4.20;99.90;;;;;;5053797;28;20032;-61
2023/01/18 02:59:37;;;;;;;;;;;-4.20;99.90;;;;;;5053732;28;20007;-60
2023/01/18 03:02:05;;;;;;;;;;;-4.20;99.90;;;;;;5053592;28;19909;-61
2023/01/18 03:04:34;;;;;;;;;;;-4.20;99.90;;;;;;5052489;28;19920;-60
2023/01/18 03:07:06;;;;;;;;;;;-4.20;99.90;;;;;;5053911;28;20367;-60
2023/01/18 03:09:32;;;;;;;;;;;-4.20;99.90;;;;;;5053869;28;19919;-60
2023/01/18 03:12:17;;;;;;;;;;;-4.20;99.90;;;;;;5053409;28;19908;-61
2023/01/18 03:15:07;;;;;;;;;;;-4.10;99.90;;;;;;5053458;28;19909;-61
2023/01/18 03:17:36;;;;;;;;;;;-4.20;99.90;;;;;;5053252;28;19927;-60
2023/01/18 03:20:08;;;;;;;;;;;-4.20;99.90;;;;;;5053720;28;19909;-61
2023/01/18 03:25:28;;;;;;;;;;;-4.30;99.90;;;;;;5053315;28;20374;-60
2023/01/18 03:33:44;;;;;;;;;;;-4.20;99.90;;;;;;5053255;28;19909;-61
2023/01/18 03:36:26;;;;;;;;;;;-4.20;99.90;;;;;;5053657;28;19932;-60
2023/01/18 03:38:55;;;;;;;;;;;-4.30;99.90;;;;;;5053293;28;19913;-61
2023/01/18 03:41:34;;;;;;;;;;;-4.20;99.90;;;;;;5053573;28;20290;-61
2023/01/18 03:44:03;;;;;;;;;;;-4.30;99.90;;;;;;5053301;28;19944;-61
2023/01/18 03:46:30;;;;;;;;;;;-4.20;99.90;;;;;;5053526;28;19955;-60
2023/01/18 03:48:56;;;;;;;;;;;-4.20;99.90;;;;;;5053505;28;19958;-61
2023/01/18 03:51:24;;;;;;;;;;;-4.20;99.90;;;;;;5053217;28;19909;-61
2023/01/18 03:54:10;;;;;;;;;;;-4.20;99.90;;;;;;5053428;28;19909;-61
2023/01/18 03:56:41;;;;;;;;;;;-4.20;99.90;;;;;;5052871;28;19938;-60
2023/01/18 03:59:07;;;;;;;;;;;-4.20;99.90;;;;;;5051871;28;20007;-61
2023/01/18 04:01:33;;;;;;;;;;;-4.20;99.90;;;;;;5053105;28;20390;-61
2023/01/18 04:03:58;;;;;;;;;;;-4.20;99.90;;;;;;5053336;28;19909;-60
2023/01/18 04:06:24;;;;;;;;;;;-4.20;99.90;;;;;;5053063;28;19963;-61
2023/01/18 04:08:50;;;;;;;;;;;-4.20;99.90;;;;;;5053266;28;20023;-61
2023/01/18 04:11:16;;;;;;;;;;;-4.20;99.90;;;;;;5053329;28;20077;-61
2023/01/18 04:13:41;;;;;;;;;;;-4.10;99.90;;;;;;5053229;28;20379;-60
2023/01/18 04:16:07;;;;;;;;;;;-4.00;99.90;;;;;;5052757;28;20290;-60
2023/01/18 04:18:32;;;;;;;;;;;-4.00;99.90;;;;;;5052858;28;19909;-60
2023/01/18 04:20:58;;;;;;;;;;;-4.10;99.90;;;;;;5053177;28;19959;-60
2023/01/18 04:23:24;;;;;;;;;;;-4.10;99.90;;;;;;5053151;28;19916;-61
2023/01/18 04:25:49;;;;;;;;;;;-4.20;99.90;;;;;;5056349;28;19916;-62
2023/01/18 04:28:16;;;;;;;;;;;-4.20;99.90;;;;;;5056757;28;19931;-60
2023/01/18 04:30:41;;;;;;;;;;;-4.20;99.90;;;;;;5056706;28;19909;-60
2023/01/18 04:33:07;;;;;;;;;;;-4.20;99.90;;;;;;5056401;28;20268;-60
2023/01/18 04:35:33;;;;;;;;;;;-4.20;99.90;;;;;;5056637;28;20036;-61
2023/01/18 04:37:59;;;;;;;;;;;-4.20;99.90;;;;;;5056497;28;19971;-60
2023/01/18 04:40:24;;;;;;;;;;;-4.20;99.90;;;;;;5056559;28;19909;-60
2023/01/18 04:42:50;;;;;;;;;;;-4.30;99.90;;;;;;5056503;28;19913;-62
2023/01/18 04:45:17;;;;;;;;;;;-4.30;99.90;;;;;;5056246;28;20034;-61
2023/01/18 04:47:43;;;;;;;;;;;-4.30;99.90;;;;;;5056369;28;19909;-61
2023/01/18 04:50:09;;;;;;;;;;;-4.30;99.90;;;;;;5056366;28;20393;-60
2023/01/18 04:52:35;;;;;;;;;;;-4.20;99.90;;;;;;5056039;28;19909;-60
2023/01/18 04:55:00;;;;;;;;;;;-4.20;99.90;;;;;;5055965;28;19920;-60
2023/01/18 04:57:26;;;;;;;;;;;-4.20;99.90;;;;;;5056112;28;19913;-60
2023/01/18 04:59:51;;;;;;;;;;;-4.20;99.90;;;;;;5056241;28;19915;-61
2023/01/18 05:02:16;;;;;;;;;;;-4.30;99.90;;;;;;5056156;28;19952;-61
2023/01/18 05:04:42;;;;;;;;;;;-4.30;99.90;;;;;;5055787;28;20283;-61
2023/01/18 05:07:07;;;;;;;;;;;-4.30;99.90;;;;;;5056057;28;19909;-60
2023/01/18 05:09:33;;;;;;;;;;;-4.40;99.90;;;;;;5055982;28;19908;-61
2023/01/18 05:11:58;;;;;;;;;;;-4.30;99.90;;;;;;5055729;28;19909;-60
2023/01/18 05:14:24;;;;;;;;;;;-4.30;99.90;;;;;;5038102;28;20043;-60
2023/01/18 05:16:49;;;;;;;;;;;-4.30;99.90;;;;;;5055319;28;19920;-60
2023/01/18 05:19:15;;;;;;;;;;;-4.30;99.90;;;;;;5055547;28;20359;-60
2023/01/18 05:21:40;;;;;;;;;;;-4.30;99.90;;;;;;5055771;28;20285;-60
2023/01/18 05:24:06;;;;;;;;;;;-4.30;99.90;;;;;;5055421;28;19915;-61
2023/01/18 05:26:31;;;;;;;;;;;-4.20;99.90;;;;;;5055482;28;19909;-60
2023/01/18 05:28:57;;;;;;;;;;;-4.30;99.90;;;;;;5055338;28;20287;-60
2023/01/18 05:31:22;;;;;;;;;;;-4.20;99.90;;;;;;5055595;28;19992;-61
2023/01/18 05:33:48;;;;;;;;;;;-4.20;99.90;;;;;;5055536;28;19915;-60
2023/01/18 05:36:13;;;;;;;;;;;-4.20;99.90;;;;;;5055238;28;19909;-60
2023/01/18 05:38:39;;;;;;;;;;;-4.30;99.90;;;;;;5055093;28;19913;-61
2023/01/18 05:41:04;;;;;;;;;;;-4.30;99.90;;;;;;5055127;28;19909;-60
2023/01/18 05:43:30;;;;;;;;;;;-4.30;99.90;;;;;;5055104;28;20388;-60
2023/01/18 05:45:56;;;;;;;;;;;-4.30;99.90;;;;;;5055025;28;19909;-61
2023/01/18 05:48:21;;;;;;;;;;;-4.30;99.90;;;;;;5055015;28;19913;-61
2023/01/18 05:50:47;;;;;;;;;;;-4.40;99.90;;;;;;5055216;28;19940;-61
2023/01/18 05:53:14;;;;;;;;;;;-4.40;99.90;;;;;;5055160;28;20056;-61
2023/01/18 05:55:40;;;;;;;;;;;-4.40;99.90;;;;;;5055093;28;20375;-61
2023/01/18 05:58:05;;;;;;;;;;;-4.30;99.90;;;;;;5054716;28;19920;-60
2023/01/18 06:00:30;;;;;;;;;;;-4.30;99.90;;;;;;5054673;28;19912;-60
2023/01/18 06:02:56;;;;;;;;;;;-4.40;99.90;;;;;;5054713;28;20432;-61
2023/01/18 06:05:23;;;;;;;;;;;-4.40;99.90;;;;;;5054893;28;19931;-62
2023/01/18 06:07:48;;;;;;;;;;;-4.40;99.90;;;;;;5054919;28;19940;-60
2023/01/18 06:10:14;;;;;;;;;;;-4.40;99.90;;;;;;5054523;28;20382;-60
2023/01/18 06:12:40;;;;;;;;;;;-4.30;99.90;;;;;;5054517;28;19943;-60
2023/01/18 06:15:06;;;;;;;;;;;-4.30;99.90;;;;;;5054694;28;19958;-60
2023/01/18 06:17:32;;;;;;;;;;;-4.30;99.90;;;;;;5036346;28;19960;-60
2023/01/18 06:19:57;;;;;;;;;;;-4.30;99.90;;;;;;5054661;28;19955;-60
2023/01/18 06:22:23;;;;;;;;;;;-4.30;99.90;;;;;;5054363;28;19948;-61
2023/01/18 06:24:48;;;;;;;;;;;-4.20;99.90;;;;;;5054285;28;19932;-61
2023/01/18 06:27:14;;;;;;;;;;;-4.20;99.90;;;;;;5054203;28;19916;-60
2023/01/18 06:29:39;;;;;;;;;;;-4.20;99.90;;;;;;5054447;28;19916;-61
2023/01/18 06:32:05;;;;;;;;;;;-4.30;99.90;;;;;;5054223;28;20298;-60
2023/01/18 06:34:32;;;;;;;;;;;-4.30;99.90;;;;;;5054509;28;19912;-60
2023/01/18 06:36:57;;;;;;;;;;;-4.30;99.90;;;;;;5054090;28;20435;-60
2023/01/18 06:39:23;;;;;;;;;;;-4.20;99.90;;;;;;5054051;28;19989;-60
2023/01/18 06:41:49;;;;;;;;;;;-4.20;99.90;;;;;;5053953;28;19923;-60
2023/01/18 06:44:14;;;;;;;;;;;-4.20;99.90;;;;;;5053972;28;19967;-60
2023/01/18 06:46:41;;;;;;;;;;;-4.20;99.90;;;;;;5053519;28;19916;-60
2023/01/18 06:49:07;;;;;;;;;;;-4.10;99.90;;;;;;5053813;28;19916;-60
2023/01/18 06:51:32;;;;;;;;;;;-4.10;99.90;;;;;;5052675;28;19922;-61
2023/01/18 06:53:58;;;;;;;;;;;-4.00;99.90;;;;;;5054112;28;19913;-60
2023/01/18 06:56:25;;;;;;;;;;;-4.00;99.90;;;;;;5053921;28;19996;-61
2023/01/18 06:58:51;;;;;;;;;;;-4.00;99.90;;;;;;5053922;28;19963;-60
2023/01/18 07:01:17;;;;;;;;;;;-4.00;99.90;;;;;;5036146;28;19913;-60
2023/01/18 07:03:42;;;;;;;;;;;-4.00;99.90;;;;;;5053949;28;19955;-60
2023/01/18 07:06:08;;;;;;;;;;;-4.00;99.90;;;;;;5053509;28;19963;-60
2023/01/18 07:08:34;;;;;;;;;;;-4.00;99.90;;;;;;5053796;28;20331;-61
2023/01/18 07:11:03;;;;;;;;;;;-4.00;99.90;;;;;;5053561;28;19909;-60
2023/01/18 07:13:28;;;;;;;;;;;-4.00;99.90;;;;;;5053534;28;20386;-61
2023/01/18 07:15:56;;;;;;;;;;;-4.00;99.90;;;;;;5053590;28;19909;-62
2023/01/18 07:18:22;;;;;;;;;;;-4.00;99.90;;;;;;5053647;28;20385;-60
2023/01/18 07:20:55;;;;;;;;;;;-4.00;99.90;;;;;;5053625;28;19916;-61
2023/01/18 07:23:21;;;;;;;;;;;-4.10;99.90;;;;;;5053704;28;19912;-60
2023/01/18 07:25:46;;;;;;;;;;;-4.10;99.90;;;;;;5053375;28;20385;-61
2023/01/18 07:28:12;;;;;;;;;;;-4.10;99.90;;;;;;5053030;28;20333;-61
2023/01/18 07:30:37;;;;;;;;;;;-4.00;99.90;;;;;;5053516;28;19913;-60
2023/01/18 07:33:03;;;;;;;;;;;-4.00;99.90;;;;;;5053945;28;19988;-60
2023/01/18 07:35:28;;;;;;;;;;;-4.00;99.90;;;;;;5058833;28;19924;-62
2023/01/18 07:37:54;;;;;;;;;;;-4.00;99.90;;;;;;5054341;28;19916;-60
2023/01/18 07:40:20;;;;;;;;;;;-4.00;99.90;;;;;;5059630;28;19912;-60
2023/01/18 07:42:46;;;;;;;;;;;-4.00;99.90;;;;;;5073378;28;19978;-61
2023/01/18 07:45:12;;;;;;;;;;;-3.90;99.90;;;;;;5070315;28;19917;-60
2023/01/18 07:47:41;;;;;;;;;;;-3.90;99.90;;;;;;5064328;28;20362;-60
2023/01/18 07:50:07;;;;;;;;;;;-3.80;99.90;;;;;;5053224;28;19957;-61
2023/01/18 07:52:33;;;;;;;;;;;-3.70;99.90;;;;;;5053143;28;19913;-61
2023/01/18 07:54:58;;;;;;;;;;;-3.80;99.90;;;;;;5053092;28;20394;-61
2023/01/18 07:57:24;;;;;;;;;;;-3.70;99.90;;;;;;5062363;28;19917;-61
2023/01/18 07:59:50;;;;;;;;;;;-3.70;99.90;;;;;;5065688;28;20286;-61
2023/01/18 08:02:15;;;;;;;;;;;-3.60;99.90;;;;;;5057497;28;19913;-62
2023/01/18 08:04:42;;;;;;;;;;;-3.60;99.90;;;;;;5057096;28;20330;-61
2023/01/18 08:07:07;;;;;;;;;;;-3.50;99.90;;;;;;5056686;28;19919;-61
2023/01/18 08:09:33;;;;;;;;;;;-3.50;99.90;;;;;;5038688;28;20003;-61
2023/01/18 08:12:00;;;;;;;;;;;-3.40;99.90;;;;;;5056858;28;19912;-61
2023/01/18 08:14:25;;;;;;;;;;;-3.30;99.90;;;;;;5059900;28;19912;-61
2023/01/18 08:16:51;;;;;;;;;;;-3.30;99.90;;;;;;5061131;28;20294;-61
2023/01/18 08:19:16;;;;;;;;;;;-3.20;99.90;;;;;;5056717;28;19912;-61
2023/01/18 08:21:42;;;;;;;;;;;-3.10;99.90;;;;;;5057922;28;20008;-61
2023/01/18 08:24:08;;;;;;;;;;;-2.90;99.90;;;;;;5056725;28;19909;-61
2023/01/18 08:26:43;;;;;;;;;;;-2.80;99.90;;;;;;5056463;28;19909;-61
2023/01/18 08:29:08;;;;;;;;;;;-2.70;99.90;;;;;;5056554;28;19919;-61
2023/01/18 08:31:34;;;;;;;;;;;-2.70;99.90;;;;;;5058427;28;19913;-62
2023/01/18 08:34:00;;;;;;;;;;;-2.60;99.90;;;;;;5056607;28;19908;-62
2023/01/18 08:36:26;;;;;;;;;;;-2.60;99.90;;;;;;5056503;28;19919;-61
2023/01/18 08:38:54;;;;;;;;;;;-2.60;99.90;;;;;;5057532;28;19968;-61
2023/01/18 08:41:19;;;;;;;;;;;-2.60;99.90;;;;;;5056418;28;20396;-61
2023/01/18 08:43:49;;;;;;;;;;;-2.50;99.90;;;;;;5057094;28;19913;-61
2023/01/18 08:46:15;;;;;;;;;;;-2.40;99.90;;;;;;5065558;28;20358;-61
2023/01/18 08:48:40;;;;;;;;;;;-2.40;99.90;;;;;;5075903;28;19962;-61
2023/01/18 08:51:06;;;;;;;;;;;-2.30;99.90;;;;;;5075921;28;20301;-61
2023/01/18 08:53:31;;;;;;;;;;;-2.20;99.90;;;;;;5075948;28;19909;-61
2023/01/18 08:55:57;;;;;;;;;;;-2.20;99.90;;;;;;5076142;28;20362;-61
2023/01/18 08:58:22;;;;;;;;;;;-2.10;99.90;;;;;;5070572;28;19924;-61
2023/01/18 09:00:49;;;;;;;;;;;-1.90;99.90;;;;;;5060925;28;19912;-64
2023/01/18 09:03:19;;;;;;;;;;;-2.00;99.90;;;;;;5058711;28;20015;-61
2023/01/18 09:05:44;;;;;;;;;;;-2.00;99.90;;;;;;5075611;28;20278;-62
2023/01/18 09:08:10;;;;;;;;;;;-1.90;99.90;;;;;;5075722;28;19942;-62
2023/01/18 09:10:37;;;;;;;;;;;-1.80;99.90;;;;;;5075116;28;20397;-62
2023/01/18 09:13:03;;;;;;;;;;;-1.60;99.90;;;;;;5074694;28;19909;-62
2023/01/18 09:15:28;;;;;;;;;;;-1.60;99.90;;;;;;5071885;28;19913;-63
2023/01/18 09:17:54;;;;;;;;;;;-1.40;99.90;;;;;;5055058;28;20015;-62
2023/01/18 09:20:19;;;;;;;;;;;-1.20;99.90;;;;;;5055613;28;20013;-62
2023/01/18 09:22:46;;;;;;;;;;;-1.20;99.90;;;;;;5068678;28;19919;-62
2023/01/18 09:25:12;;;;;;;;;;;-0.90;99.90;;;;;;5070509;28;19991;-62
2023/01/18 09:27:37;;;;;;;;;;;-1.00;99.90;;;;;;5075468;28;19951;-62
2023/01/18 09:30:04;;;;;;;;;;;-0.80;99.90;;;;;;5066499;28;19913;-63
2023/01/18 09:32:30;;;;;;;;;;;-0.70;99.90;;;;;;5075065;28;19974;-62
2023/01/18 09:34:55;;;;;;;;;;;-0.60;99.90;;;;;;5056816;28;20261;-62
2023/01/18 09:37:21;;;;;;;;;;;-0.30;99.90;;;;;;5074233;28;19966;-62
2023/01/18 09:39:47;;;;;;;;;;;-0.20;99.90;;;;;;5068553;28;19909;-61
2023/01/18 09:42:17;;;;;;;;;;;0.00;99.90;;;;;;5055210;28;19913;-61
2023/01/18 09:44:44;;;;;;;;;;;0.20;99.90;;;;;;5055083;28;20377;-62
2023/01/18 09:47:11;;;;;;;;;;;0.50;99.90;;;;;;5068254;28;19909;-62
2023/01/18 09:49:45;;;;;;;;;;;0.80;99.90;;;;;;5054956;28;19913;-62
2023/01/18 09:52:19;;;;;;;;;;;0.90;99.90;;;;;;5055078;28;19920;-62
2023/01/18 09:54:52;;;;;;;;;;;1.00;99.90;;;;;;5070137;28;20149;-62
2023/01/18 09:57:25;;;;;;;;;;;0.80;99.90;;;;;;5060010;28;19920;-62
2023/01/18 09:59:54;;;;;;;;;;;0.70;99.90;;;;;;5054827;28;19939;-62
2023/01/18 10:02:22;;;;;;;;;;;0.70;99.90;;;;;;5072333;28;19915;-62
2023/01/18 10:04:52;;;;;;;;;;;0.60;99.90;;;;;;5074440;28;19912;-62
2023/01/18 10:07:19;;;;;;;;;;;0.60;99.90;;;;;;5074139;28;19909;-63
2023/01/18 10:09:48;;;;;;;;;;;0.60;99.90;;;;;;5074696;28;19912;-64
2023/01/18 10:15:25;;;;;;;;;;;0.80;99.90;;;;;;5090999;27;19912;-61
2023/01/18 10:17:54;;;;;;;;;;;0.70;99.90;;;;;;5091256;28;19916;-61
2023/01/18 10:20:39;;;;;;;;;;;0.90;99.90;;;;;;5090934;28;19939;-61
2023/01/18 10:23:09;;;;;;;;;;;0.80;99.90;;;;;;5090424;28;19912;-61
2023/01/18 10:25:37;;;;;;;;;;;0.90;99.90;;;;;;5091091;28;19908;-62
2023/01/18 10:28:24;;;;;;;;;;;0.90;99.90;;;;;;5090796;28;20378;-62
2023/01/18 10:30:57;;;;;;;;;;;1.10;99.90;;;;;;5084198;28;20003;-62
2023/01/18 10:33:24;;;;;;;;;;;1.20;99.90;;;;;;5070336;28;19916;-61
2023/01/18 10:35:51;;;;;;;;;;;1.60;99.90;;;;;;5070763;28;20285;-61
2023/01/18 10:38:19;;;;;;;;;;;1.40;99.90;;;;;;5070692;28;19908;-61
2023/01/18 10:40:48;;;;;;;;;;;1.50;99.90;;;;;;5070398;28;19913;-61
2023/01/18 10:43:15;;;;;;;;;;;1.50;99.90;;;;;;5070518;28;19944;-61
2023/01/18 10:45:41;;;;;;;;;;;1.60;99.90;;;;;;5075367;28;19913;-62
2023/01/18 10:48:17;;;;;;;;;;;1.60;99.90;;;;;;5083565;28;19919;-62
2023/01/18 10:50:45;;;;;;;;;;;1.60;99.90;;;;;;5090358;28;20400;-62
2023/01/18 10:53:20;;;;;;;;;;;1.60;99.90;;;;;;5083123;28;19916;-61
2023/01/18 10:56:02;;;;;;;;;;;1.70;99.90;;;;;;5070362;28;20059;-61
2023/01/18 10:58:30;;;;;;;;;;;1.70;99.90;;;;;;5070060;28;19968;-61
2023/01/18 11:00:57;;;;;;;;;;;1.90;99.90;;;;;;5079964;28;19917;-62
2023/01/18 11:03:25;;;;;;;;;;;2.20;99.90;;;;;;5070036;28;20007;-61
2023/01/18 11:05:51;;;;;;;;;;;2.50;99.90;;;;;;5101932;28;19913;-61
2023/01/18 11:08:30;;;;;;;;;;;2.80;99.90;;;;;;5069671;28;20362;-62
2023/01/18 11:11:15;;;;;;;;;;;2.80;99.90;;;;;;5069913;28;19917;-62
2023/01/18 11:13:42;;;;;;;;;;;2.80;99.90;;;;;;5078081;28;20007;-61
2023/01/18 11:16:12;;;;;;;;;;;2.90;99.90;;;;;;5090183;28;19908;-61
2023/01/18 11:18:58;;;;;;;;;;;3.10;99.90;;;;;;5090009;28;19908;-62
2023/01/18 11:21:24;;;;;;;;;;;3.30;99.90;;;;;;5089503;28;19915;-61
2023/01/18 11:23:50;;;;;;;;;;;3.40;99.90;;;;;;5089992;28;19915;-61
2023/01/18 11:26:17;;;;;;;;;;;3.10;99.90;;;;;;5079384;28;20354;-61
2023/01/18 11:28:44;;;;;;;;;;;3.10;99.90;;;;;;5080991;28;19955;-61
2023/01/18 11:31:11;;;;;;;;;;;2.90;99.90;;;;;;5086966;28;20007;-61
2023/01/18 11:33:46;;;;;;;;;;;2.80;99.90;;;;;;5086526;28;19916;-61
2023/01/18 11:36:12;;;;;;;;;;;2.90;99.90;;;;;;5096458;28;19948;-61
2023/01/18 11:38:37;;;;;;;;;;;2.80;99.90;;;;;;5096183;28;19916;-61
2023/01/18 11:41:05;;;;;;;;;;;2.80;99.90;;;;;;5096071;28;19915;-61
2023/01/18 11:43:32;;;;;;;;;;;2.90;99.90;;;;;;5091539;28;19912;-61
2023/01/18 11:46:01;;;;;;;;;;;3.00;99.90;;;;;;5095896;28;20394;-61
2023/01/18 11:48:31;;;;;;;;;;;3.00;99.90;;;;;;5077702;28;20424;-62
2023/01/18 11:51:06;;;;;;;;;;;3.10;99.90;;;;;;5095869;28;19915;-61
2023/01/18 11:53:42;;;;;;;;;;;3.10;99.90;;;;;;5096072;28;19912;-61
2023/01/18 11:56:10;;;;;;;;;;;3.20;99.90;;;;;;5096158;28;19908;-61
2023/01/18 11:58:36;;;;;;;;;;;3.00;99.90;;;;;;5096055;28;19912;-61
2023/01/18 12:01:09;;;;;;;;;;;2.80;99.90;;;;;;5088369;28;20392;-61
2023/01/18 12:03:55;;;;;;;;;;;2.70;99.90;;;;;;5096023;28;20393;-61
2023/01/18 12:06:35;;;;;;;;;;;2.80;99.90;;;;;;5095348;28;19912;-61
2023/01/18 12:09:11;;;;;;;;;;;2.70;99.90;;;;;;5095851;28;19914;-61
2023/01/18 12:11:41;;;;;;;;;;;2.90;99.90;;;;;;5084737;28;19916;-61
2023/01/18 12:14:27;;;;;;;;;;;3.10;99.90;;;;;;5095358;28;19920;-61
2023/01/18 12:17:00;;;;;;;;;;;3.10;99.90;;;;;;5079811;28;19995;-61
2023/01/18 12:19:33;;;;;;;;;;;3.20;99.90;;;;;;5075238;28;19909;-61
2023/01/18 12:22:12;;;;;;;;;;;3.20;99.90;;;;;;5091849;28;19935;-61
2023/01/18 12:24:45;;;;;;;;;;;3.20;99.90;;;;;;5095218;28;19908;-62
2023/01/18 12:27:31;;;;;;;;;;;3.20;99.90;;;;;;5095147;28;19912;-61
2023/01/18 12:30:08;;;;;;;;;;;3.30;99.90;;;;;;5094925;28;19915;-63
2023/01/18 12:32:43;;;;;;;;;;;3.40;99.90;;;;;;5075240;28;19912;-61
2023/01/18 12:35:15;;;;;;;;;;;3.40;99.90;;;;;;5075015;28;20010;-61
2023/01/18 12:38:00;;;;;;;;;;;3.30;99.90;;;;;;5073805;28;19916;-62
2023/01/18 12:40:45;;;;;;;;;;;3.20;99.90;;;;;;5079264;28;19966;-61
2023/01/18 12:43:31;;;;;;;;;;;3.10;99.90;;;;;;5094854;28;19914;-61
2023/01/18 12:46:01;;;;;;;;;;;3.20;99.90;;;;;;5087127;28;20420;-61
2023/01/18 12:48:29;;;;;;;;;;;3.20;99.90;;;;;;5074970;28;20380;-63
2023/01/18 12:50:55;;;;;;;;;;;3.10;99.90;;;;;;5074579;28;19912;-61
2023/01/18 12:53:42;;;;;;;;;;;3.10;99.90;;;;;;5074502;28;19958;-61
2023/01/18 12:56:12;;;;;;;;;;;3.30;99.90;;;;;;5056472;28;20247;-61
2023/01/18 12:58:37;;;;;;;;;;;3.30;99.90;;;;;;5074487;28;19915;-61
2023/01/18 13:01:04;;;;;;;;;;;3.40;99.90;;;;;;5082369;28;20293;-61
2023/01/18 13:03:36;;;;;;;;;;;3.40;99.90;;;;;;5094610;28;19919;-61
2023/01/18 13:06:02;;;;;;;;;;;3.50;99.90;;;;;;5092404;28;19998;-61
2023/01/18 13:08:35;;;;;;;;;;;3.50;99.90;;;;;;5076743;28;19950;-63
2023/01/18 13:11:04;;;;;;;;;;;3.50;99.90;;;;;;5094321;28;19915;-61
2023/01/18 13:13:29;;;;;;;;;;;3.50;99.90;;;;;;5094301;28;19928;-61
2023/01/18 13:16:00;;;;;;;;;;;3.50;99.90;;;;;;5080241;28;20392;-61
2023/01/18 13:18:28;;;;;;;;;;;3.50;99.90;;;;;;5094647;28;20296;-61
2023/01/18 13:21:05;;;;;;;;;;;3.60;99.90;;;;;;5094332;28;19915;-61
2023/01/18 13:23:37;;;;;;;;;;;3.60;99.90;;;;;;5089733;28;19991;-61
2023/01/18 13:26:20;;;;;;;;;;;3.60;99.90;;;;;;5095519;28;19991;-62
2023/01/18 13:28:45;;;;;;;;;;;3.70;99.90;;;;;;5085494;28;20366;-63
2023/01/18 13:31:11;;;;;;;;;;;3.80;99.90;;;;;;5082182;28;19957;-62
2023/01/18 13:33:39;;;;;;;;;;;3.90;99.90;;;;;;5073825;28;19969;-61
2023/01/18 13:36:06;;;;;;;;;;;4.00;99.90;;;;;;5073826;28;19997;-61
2023/01/18 13:38:37;;;;;;;;;;;4.00;99.90;;;;;;5073649;28;19913;-62
2023/01/18 13:41:05;;;;;;;;;;;4.00;99.90;;;;;;5073864;28;19999;-62
2023/01/18 13:43:53;;;;;;;;;;;4.10;99.90;;;;;;5073509;28;19912;-62
2023/01/18 13:46:21;;;;;;;;;;;4.10;99.90;;;;;;5071899;28;19912;-61
2023/01/18 13:48:50;;;;;;;;;;;4.00;99.90;;;;;;5093029;28;19912;-62
2023/01/18 13:51:35;;;;;;;;;;;4.00;99.90;;;;;;5094068;28;19994;-61
2023/01/18 13:54:01;;;;;;;;;;;4.10;99.90;;;;;;5093525;28;20281;-62
2023/01/18 13:56:27;;;;;;;;;;;4.00;99.90;;;;;;5093664;28;19912;-62
2023/01/18 13:58:55;;;;;;;;;;;4.00;99.90;;;;;;5093746;28;19965;-61
2023/01/18 14:01:22;;;;;;;;;;;4.00;99.90;;;;;;5085809;28;20265;-61
2023/01/18 14:03:49;;;;;;;;;;;4.00;99.90;;;;;;5091584;28;20304;-61
2023/01/18 14:06:31;;;;;;;;;;;4.10;99.90;;;;;;5093641;28;20316;-61
2023/01/18 14:09:02;;;;;;;;;;;4.00;99.90;;;;;;5093502;28;20392;-61
2023/01/18 14:11:30;;;;;;;;;;;3.90;99.90;;;;;;5093689;28;20011;-61
2023/01/18 14:16:37;;;;;;;;;;;3.80;99.90;;;;;;5070715;28;19923;-60
2023/01/18 14:19:14;;;;;;;;;;;3.80;99.90;;;;;;5070770;28;19966;-61
2023/01/18 14:21:59;;;;;;;;;;;3.80;99.90;;;;;;5070281;28;19908;-60
2023/01/18 14:24:45;;;;;;;;;;;3.80;99.90;;;;;;5070613;28;19967;-62
2023/01/18 14:27:15;;;;;;;;;;;3.70;99.90;;;;;;5070499;28;19909;-60
2023/01/18 14:29:55;;;;;;;;;;;3.70;99.90;;;;;;5069893;28;20327;-61
2023/01/18 14:32:26;;;;;;;;;;;3.70;99.90;;;;;;5070200;28;19913;-60
2023/01/18 14:34:55;;;;;;;;;;;3.70;99.90;;;;;;5069982;28;19963;-60
2023/01/18 14:37:26;;;;;;;;;;;3.70;99.90;;;;;;5070433;28;20247;-60
2023/01/18 14:40:11;;;;;;;;;;;3.70;99.90;;;;;;5070585;28;19913;-60
2023/01/18 14:42:39;;;;;;;;;;;3.70;99.90;;;;;;5069913;28;19917;-60
2023/01/18 14:45:05;;;;;;;;;;;3.60;99.90;;;;;;5070069;28;20083;-61
2023/01/18 14:47:32;;;;;;;;;;;3.60;99.90;;;;;;5070081;28;19912;-61
2023/01/18 14:50:00;;;;;;;;;;;3.50;99.90;;;;;;5069369;28;19939;-61
2023/01/18 14:52:27;;;;;;;;;;;3.50;99.90;;;;;;5068795;28;20378;-61
2023/01/18 14:54:54;;;;;;;;;;;3.40;99.90;;;;;;5069631;28;19935;-60
2023/01/18 14:57:20;;;;;;;;;;;3.40;99.90;;;;;;5069558;28;19916;-61
2023/01/18 14:59:50;;;;;;;;;;;3.40;99.90;;;;;;5069634;28;20357;-60
2023/01/18 15:02:17;;;;;;;;;;;3.40;99.90;;;;;;5069348;28;20316;-61
2023/01/18 15:04:44;;;;;;;;;;;3.40;99.90;;;;;;5069233;28;19909;-60
2023/01/18 15:07:21;;;;;;;;;;;3.30;99.90;;;;;;5070003;28;20003;-60